Time;durP1;ratioP1;P1;durP2;ratioP2;P2;SDS_P1;SDS_P2;PMS_P1;PMS_P2;Temp;Humidity;BMP_temperature;BMP_pressure;BME280_temperature;BME280_humidity;BME280_pressure;Samples;Min_cycle;Max_cycle;Signal;HPM_P1;HPM_P2
2023/05/14 00:01:20;;;;;;;4.43;1.80;;;;;;;16.76;50.08;99629.69;5058333;28;20702;-92
2023/05/14 00:03:47;;;;;;;3.90;1.60;;;;;;;16.77;49.83;99632.19;5054515;28;20177;-93
2023/05/14 00:06:14;;;;;;;2.80;1.47;;;;;;;16.71;50.06;99630.00;5053255;28;20209;-92
2023/05/14 00:08:41;;;;;;;5.53;1.47;;;;;;;16.72;49.52;99622.91;5053632;28;20211;-92
2023/05/14 00:11:07;;;;;;;4.77;1.23;;;;;;;16.71;49.95;99626.50;5054542;28;20173;-93
2023/05/14 00:13:35;;;;;;;4.83;1.53;;;;;;;16.78;49.87;99622.47;5053809;28;20178;-92
2023/05/14 00:16:01;;;;;;;6.20;1.80;;;;;;;16.83;49.90;99623.00;5054822;28;20162;-93
2023/05/14 00:18:27;;;;;;;5.83;1.60;;;;;;;16.81;49.96;99622.25;5053448;28;20195;-93
2023/05/14 00:20:53;;;;;;;8.73;2.40;;;;;;;16.75;51.00;99609.44;5054473;28;20239;-93
2023/05/14 00:23:23;;;;;;;2.87;1.37;;;;;;;16.73;50.88;99608.72;5054020;28;20323;-91
2023/05/14 00:25:55;;;;;;;3.93;1.60;;;;;;;16.68;51.22;99603.75;5053681;28;20537;-92
2023/05/14 00:28:22;;;;;;;3.90;1.90;;;;;;;16.67;51.10;99604.69;5054113;28;20174;-92
2023/05/14 00:30:47;;;;;;;3.63;1.57;;;;;;;16.73;50.74;99604.25;5053339;28;20180;-92
2023/05/14 00:33:14;;;;;;;3.70;1.50;;;;;;;16.81;50.18;99606.38;5053008;28;20173;-92
2023/05/14 00:35:41;;;;;;;4.90;1.67;;;;;;;16.81;50.12;99612.53;5053500;28;20191;-92
2023/05/14 00:38:09;;;;;;;4.13;1.77;;;;;;;16.82;50.33;99618.66;5052701;28;20175;-92
2023/05/14 00:40:37;;;;;;;3.97;1.83;;;;;;;16.71;50.44;99616.78;5053387;28;20544;-92
2023/05/14 00:43:06;;;;;;;6.93;1.80;;;;;;;16.60;50.44;99616.66;5052615;28;20191;-91
2023/05/14 00:45:33;;;;;;;5.53;1.77;;;;;;;16.42;51.20;99608.19;5053410;28;20220;-93
2023/05/14 00:48:00;;;;;;;4.80;1.70;;;;;;;16.35;51.41;99614.81;5052546;28;20209;-93
2023/05/14 00:50:27;;;;;;;11.40;1.87;;;;;;;16.38;51.20;99617.25;5052591;28;20195;-93
2023/05/14 00:52:56;;;;;;;6.20;1.60;;;;;;;16.35;51.01;99614.81;5069092;28;20180;-93
2023/05/14 00:55:23;;;;;;;7.87;1.73;;;;;;;16.34;51.21;99612.28;5053517;28;20165;-90
2023/05/14 00:57:55;;;;;;;3.57;1.70;;;;;;;16.30;52.18;99616.94;5068799;28;20229;-93
2023/05/14 01:00:22;;;;;;;3.90;1.77;;;;;;;16.30;52.18;99616.94;5053247;28;20168;-92
2023/05/14 01:02:49;;;;;;;3.47;1.60;;;;;;;16.19;53.16;99618.63;5052776;28;20183;-92
2023/05/14 01:05:16;;;;;;;3.33;1.70;;;;;;;16.15;53.69;99617.97;5069012;28;20212;-92
2023/05/14 01:08:29;;;;;;;5.40;1.90;;;;;;;16.05;54.00;99610.78;5052924;28;20228;-93
2023/05/14 01:11:05;;;;;;;3.03;1.57;;;;;;;15.98;53.92;99610.34;5051179;28;20209;-93
2023/05/14 01:13:56;;;;;;;4.40;1.67;;;;;;;16.01;53.74;99588.97;5068789;28;20173;-93
2023/05/14 01:16:26;;;;;;;3.33;1.70;;;;;;;16.01;53.52;99588.97;5053010;28;20172;-92
2023/05/14 01:18:53;;;;;;;6.67;2.17;;;;;;;16.12;53.46;99586.44;5052077;28;20255;-92
2023/05/14 01:21:33;;;;;;;4.30;1.77;;;;;;;16.14;53.53;99583.72;5053067;28;20180;-91
2023/05/14 01:23:59;;;;;;;3.93;1.90;;;;;;;16.08;53.31;99577.03;5051843;28;20264;-92
2023/05/14 01:26:27;;;;;;;3.23;1.57;;;;;;;16.08;53.84;99574.41;5052021;28;20204;-92
2023/05/14 01:28:57;;;;;;;5.40;2.97;;;;;;;16.13;53.41;99572.28;5052917;28;20184;-93
2023/05/14 01:31:27;;;;;;;3.10;2.07;;;;;;;16.17;53.06;99568.47;5052035;28;20198;-92
2023/05/14 01:33:57;;;;;;;6.20;1.93;;;;;;;16.20;53.00;99565.63;5052441;28;20208;-93
2023/05/14 01:36:24;;;;;;;4.50;1.60;;;;;;;16.19;53.03;99571.03;5053058;28;20293;-93
2023/05/14 01:38:51;;;;;;;3.50;1.80;;;;;;;16.17;53.05;99571.09;5053221;28;20659;-93
2023/05/14 01:41:18;;;;;;;3.77;1.73;;;;;;;16.23;52.83;99573.34;5052000;28;20184;-93
2023/05/14 01:43:45;;;;;;;5.63;1.60;;;;;;;16.20;53.28;99573.56;5068714;28;20637;-93
2023/05/14 01:46:12;;;;;;;4.40;1.97;;;;;;;16.16;53.49;99569.44;5068620;28;20573;-93
2023/05/14 01:48:40;;;;;;;6.10;1.40;;;;;;;16.14;53.44;99562.56;5052465;28;20176;-91
2023/05/14 01:51:07;;;;;;;4.03;1.83;;;;;;;16.13;53.43;99558.22;5051741;28;20253;-93
2023/05/14 01:53:34;;;;;;;3.90;1.60;;;;;;;16.12;53.25;99559.16;5052678;28;20173;-93
2023/05/14 01:56:00;;;;;;;4.43;1.97;;;;;;;16.09;53.61;99554.91;5052701;28;20174;-93
2023/05/14 01:58:27;;;;;;;5.60;1.50;;;;;;;16.08;54.08;99557.69;5052833;28;20222;-93
2023/05/14 02:00:52;;;;;;;6.13;1.60;;;;;;;16.11;54.19;99562.75;5052066;28;20166;-93
2023/05/14 02:03:19;;;;;;;5.67;1.67;;;;;;;16.16;53.73;99566.78;5052828;28;20181;-94
2023/05/14 02:05:46;;;;;;;5.70;1.77;;;;;;;16.23;53.64;99564.56;5051732;28;20212;-92
2023/05/14 02:08:12;;;;;;;4.37;1.80;;;;;;;16.13;53.67;99564.34;5053118;28;20317;-92
2023/05/14 02:10:39;;;;;;;3.00;1.50;;;;;;;16.00;54.36;99563.50;5051590;28;20630;-92
2023/05/14 02:13:05;;;;;;;3.27;1.90;;;;;;;15.93;54.28;99567.50;5053028;28;20238;-91
2023/05/14 02:15:31;;;;;;;5.30;2.37;;;;;;;15.93;54.14;99578.09;5054942;28;20169;-93
2023/05/14 02:17:58;;;;;;;4.43;2.30;;;;;;;16.04;53.70;99583.47;5056428;28;20173;-93
2023/05/14 02:20:24;;;;;;;3.23;1.87;;;;;;;16.07;53.82;99571.84;5056427;28;20180;-93
2023/05/14 02:22:51;;;;;;;2.60;1.50;;;;;;;16.06;53.57;99567.53;5056411;28;20176;-92
2023/05/14 02:25:18;;;;;;;4.23;1.97;;;;;;;15.97;53.70;99566.34;5056370;28;20199;-92
2023/05/14 02:27:44;;;;;;;2.67;1.30;;;;;;;15.87;54.31;99567.91;5056650;28;20184;-92
2023/05/14 02:30:11;;;;;;;3.77;1.47;;;;;;;15.79;54.23;99575.50;5055616;28;20176;-92
2023/05/14 02:32:38;;;;;;;3.67;1.97;;;;;;;15.75;54.46;99563.44;5055841;28;20194;-92
2023/05/14 02:35:05;;;;;;;4.40;1.97;;;;;;;15.88;53.93;99562.50;5056165;28;20169;-93
2023/05/14 02:37:33;;;;;;;4.73;2.23;;;;;;;15.87;53.56;99575.84;5055923;28;20171;-92
2023/05/14 02:40:00;;;;;;;5.30;1.90;;;;;;;15.87;53.73;99573.19;5055959;28;20210;-93
2023/05/14 02:42:26;;;;;;;4.30;1.97;;;;;;;15.71;54.81;99577.81;5071796;28;20180;-93
2023/05/14 02:44:53;;;;;;;3.10;1.83;;;;;;;15.58;55.34;99575.13;5056070;28;20184;-92
2023/05/14 02:47:20;;;;;;;3.33;1.60;;;;;;;15.53;55.66;99574.59;5055749;28;20234;-92
2023/05/14 02:49:46;;;;;;;8.33;2.03;;;;;;;15.37;55.23;99580.00;5055962;28;20200;-92
2023/05/14 02:52:13;;;;;;;3.20;1.60;;;;;;;15.28;55.63;99583.22;5054816;28;20190;-92
2023/05/14 02:54:40;;;;;;;6.90;2.17;;;;;;;15.24;55.63;99580.91;5055802;28;20180;-93
2023/05/14 02:57:07;;;;;;;4.43;2.10;;;;;;;15.28;56.04;99579.75;5055331;28;20231;-92
2023/05/14 02:59:33;;;;;;;4.07;1.97;;;;;;;15.23;55.58;99577.41;5054522;28;20193;-92
2023/05/14 03:02:00;;;;;;;3.50;1.87;;;;;;;15.26;55.84;99577.22;5054470;28;20188;-92
2023/05/14 03:04:26;;;;;;;6.87;2.27;;;;;;;15.31;55.69;99577.75;5054562;28;20194;-93
2023/05/14 03:06:54;;;;;;;5.23;2.30;;;;;;;15.31;55.46;99580.41;5054455;28;20231;-92
2023/05/14 03:09:21;;;;;;;7.80;2.70;;;;;;;15.27;55.64;99584.19;5055721;28;20169;-93
2023/05/14 03:11:49;;;;;;;8.87;1.80;;;;;;;15.24;55.84;99580.91;5055846;28;20621;-92
2023/05/14 03:14:16;;;;;;;9.53;2.40;;;;;;;15.26;56.15;99585.13;5055407;28;20587;-93
2023/05/14 03:16:41;;;;;;;4.97;2.07;;;;;;;15.32;55.98;99586.53;5054646;28;20177;-92
2023/05/14 03:19:08;;;;;;;7.43;2.10;;;;;;;15.39;55.76;99585.19;5055067;28;20184;-92
2023/05/14 03:21:35;;;;;;;9.40;2.57;;;;;;;15.45;55.70;99578.66;5054950;28;20167;-93
2023/05/14 03:24:02;;;;;;;5.60;2.33;;;;;;;15.47;55.75;99585.56;5055284;28;20180;-92
2023/05/14 03:26:27;;;;;;;7.30;2.00;;;;;;;15.48;55.64;99594.34;5055026;28;20193;-92
2023/05/14 03:28:54;;;;;;;3.60;2.00;;;;;;;15.49;56.25;99596.88;5055046;28;20183;-92
2023/05/14 03:31:20;;;;;;;7.53;2.93;;;;;;;15.56;56.09;99597.34;5055016;28;20178;-92
2023/05/14 03:33:47;;;;;;;5.47;2.00;;;;;;;15.68;55.79;99612.38;5054905;28;20260;-93
2023/05/14 03:36:14;;;;;;;5.37;2.00;;;;;;;15.78;55.29;99613.44;5055118;28;20621;-92
2023/05/14 03:38:41;;;;;;;4.53;1.97;;;;;;;15.87;55.17;99613.72;5055047;28;20236;-93
2023/05/14 03:41:08;;;;;;;5.80;2.37;;;;;;;15.85;55.37;99609.47;5054731;28;20664;-92
2023/05/14 03:43:34;;;;;;;4.20;2.13;;;;;;;15.92;55.39;99618.69;5054660;28;20261;-92
2023/05/14 03:46:01;;;;;;;3.40;1.87;;;;;;;16.01;55.30;99614.59;5053800;28;20200;-92
2023/05/14 03:48:28;;;;;;;3.30;1.60;;;;;;;16.11;54.67;99621.81;5055163;28;20185;-93
2023/05/14 03:50:55;;;;;;;6.00;2.50;;;;;;;16.09;54.37;99621.03;5053696;28;20329;-93
2023/05/14 03:53:22;;;;;;;4.37;1.80;;;;;;;16.07;54.32;99617.66;5054707;28;20176;-93
2023/05/14 03:55:49;;;;;;;6.93;2.47;;;;;;;15.99;54.36;99628.75;5053763;28;20645;-93
2023/05/14 03:58:16;;;;;;;3.77;1.83;;;;;;;16.06;54.15;99629.19;5053316;28;20246;-92
2023/05/14 04:00:43;;;;;;;4.83;2.10;;;;;;;16.11;54.36;99637.66;5053572;28;20199;-93
2023/05/14 04:03:09;;;;;;;5.40;2.50;;;;;;;16.15;54.61;99633.00;5053432;28;20176;-93
2023/05/14 04:05:36;;;;;;;5.60;2.30;;;;;;;16.17;54.95;99629.28;5053434;28;20204;-93
2023/05/14 04:08:03;;;;;;;4.13;2.10;;;;;;;16.21;55.04;99622.88;5053410;28;20184;-92
2023/05/14 04:10:30;;;;;;;3.90;2.10;;;;;;;16.26;56.09;99620.75;5053369;28;20192;-92
2023/05/14 04:12:56;;;;;;;6.87;2.23;;;;;;;16.33;55.76;99626.47;5054590;28;20172;-92
2023/05/14 04:15:23;;;;;;;4.40;2.20;;;;;;;16.41;55.55;99627.63;5053057;28;20235;-92
2023/05/14 04:17:49;;;;;;;8.33;2.00;;;;;;;16.42;56.93;99625.84;5054069;28;20264;-92
2023/05/14 04:20:16;;;;;;;4.20;2.47;;;;;;;16.47;56.54;99618.44;5053155;28;20181;-93
2023/05/14 04:22:43;;;;;;;4.07;2.33;;;;;;;16.54;55.95;99625.03;5054058;28;20181;-94
2023/05/14 04:25:09;;;;;;;10.37;1.90;;;;;;;16.68;55.46;99629.38;5054179;28;20181;-94
2023/05/14 04:27:36;;;;;;;5.37;2.07;;;;;;;16.84;55.34;99627.34;5054152;28;20251;-94
2023/05/14 04:30:03;;;;;;;5.10;2.77;;;;;;;16.95;55.24;99630.09;5053943;28;20182;-94
2023/05/14 04:32:30;;;;;;;4.17;2.43;;;;;;;17.07;54.73;99622.13;5053909;28;20212;-93
2023/05/14 04:34:57;;;;;;;8.17;3.00;;;;;;;17.10;54.38;99610.44;5053061;28;20173;-94
2023/05/14 04:37:25;;;;;;;4.10;1.93;;;;;;;17.12;54.93;99619.13;5053498;28;20170;-95
2023/05/14 04:39:52;;;;;;;4.90;2.30;;;;;;;17.16;54.32;99626.72;5052807;28;20174;-93
2023/05/14 04:42:19;;;;;;;7.03;2.40;;;;;;;17.25;54.79;99624.38;5049298;28;20310;-93
2023/05/14 04:44:45;;;;;;;3.60;2.10;;;;;;;17.33;54.35;99619.38;5034022;28;20178;-93
2023/05/14 04:47:12;;;;;;;7.07;2.50;;;;;;;17.25;54.75;99617.28;5033667;28;20208;-92
2023/05/14 04:49:38;;;;;;;5.33;2.63;;;;;;;17.41;54.67;99622.31;5032931;28;20236;-93
2023/05/14 04:52:05;;;;;;;4.97;2.50;;;;;;;17.50;54.28;99617.22;5033024;28;20183;-93
2023/05/14 04:54:32;;;;;;;5.20;2.73;;;;;;;17.69;54.10;99604.31;5034214;28;20331;-91
2023/05/14 04:57:03;;;;;;;8.70;2.90;;;;;;;17.90;51.82;99609.00;5033150;28;20231;-91
2023/05/14 04:59:30;;;;;;;4.30;2.00;;;;;;;17.96;49.41;99605.84;5032805;28;20186;-91
2023/05/14 05:01:57;;;;;;;1075.23;468.83;;;;;;;18.24;49.35;99622.22;5057290;28;20182;-92
2023/05/14 05:04:25;;;;;;;89.87;37.00;;;;;;;18.62;50.06;99627.28;5032666;28;20230;-91
2023/05/14 05:06:51;;;;;;;9.77;4.77;;;;;;;19.12;49.47;99627.75;5045026;28;20233;-91
2023/05/14 05:09:18;;;;;;;8.83;2.73;;;;;;;19.48;48.41;99638.13;5053308;28;20243;-92
2023/05/14 05:11:43;;;;;;;11.33;2.27;;;;;;;19.43;46.18;99646.47;5052553;28;20652;-91
2023/05/14 05:14:09;;;;;;;7.53;2.00;;;;;;;19.43;46.07;99658.94;5052747;28;20188;-92
2023/05/14 05:16:35;;;;;;;7.67;2.00;;;;;;;19.45;46.06;99670.28;5053265;28;20197;-92
2023/05/14 05:19:02;;;;;;;4.77;2.43;;;;;;;19.38;45.72;99677.06;5053419;28;20232;-91
2023/05/14 05:21:29;;;;;;;4.77;2.07;;;;;;;19.28;46.71;99665.44;5053120;28;20185;-91
2023/05/14 05:23:56;;;;;;;3.23;1.83;;;;;;;19.31;46.47;99662.53;5053298;28;20223;-90
2023/05/14 05:26:25;;;;;;;7.60;2.80;;;;;;;19.25;46.84;99652.41;5053557;28;20736;-92
2023/05/14 05:28:52;;;;;;;4.73;2.20;;;;;;;19.29;46.52;99645.84;5052447;28;20177;-93
2023/05/14 05:31:19;;;;;;;3.70;1.90;;;;;;;19.32;46.15;99637.63;5052256;28;20594;-91
2023/05/14 05:33:46;;;;;;;9.27;2.40;;;;;;;19.29;46.42;99632.56;5053503;28;20178;-91
2023/05/14 05:36:12;;;;;;;3.37;1.60;;;;;;;19.35;45.96;99629.41;5053244;28;20170;-91
2023/05/14 05:38:38;;;;;;;3.67;1.97;;;;;;;19.28;46.59;99644.19;5053239;28;20184;-92
2023/05/14 05:41:05;;;;;;;8.17;2.20;;;;;;;19.38;45.89;99635.38;5052280;28;20174;-92
2023/05/14 05:43:54;;;;;;;5.57;1.90;;;;;;;19.17;45.73;99639.72;5050527;28;20197;-92
2023/05/14 05:46:19;;;;;;;5.93;2.53;;;;;;;19.05;46.31;99642.50;5047607;28;20267;-91
2023/05/14 05:48:45;;;;;;;10.23;2.43;;;;;;;19.06;46.14;99641.53;5053421;28;20610;-92
2023/05/14 05:51:11;;;;;;;6.77;1.73;;;;;;;19.06;46.89;99645.03;5046157;28;20196;-92
2023/05/14 05:53:37;;;;;;;7.43;2.30;;;;;;;18.96;47.04;99644.09;5054758;28;20630;-92
2023/05/14 05:56:02;;;;;;;4.13;1.90;;;;;;;18.92;47.91;99643.47;5054682;28;20182;-91
2023/05/14 05:58:36;;;;;;;3.57;2.00;;;;;;;18.78;48.66;99638.41;5056161;28;20295;-93
2023/05/14 06:01:02;;;;;;;5.83;2.60;;;;;;;18.67;49.07;99651.66;5057795;28;20265;-92
2023/05/14 06:03:27;;;;;;;3.17;1.50;;;;;;;18.78;48.55;99651.69;5060531;28;20264;-92
2023/05/14 06:05:53;;;;;;;6.40;2.77;;;;;;;18.87;48.33;99656.25;5058562;28;20191;-87
2023/05/14 06:08:19;;;;;;;7.13;2.40;;;;;;;18.97;48.36;99659.88;5053998;28;20219;-86
2023/05/14 06:10:45;;;;;;;7.83;2.20;;;;;;;19.07;48.25;99668.00;5053764;28;20635;-87
2023/05/14 06:13:11;;;;;;;4.90;1.80;;;;;;;19.14;47.83;99677.16;5057345;28;20181;-86
2023/05/14 06:15:36;;;;;;;6.43;1.63;;;;;;;19.21;48.06;99686.34;5056007;28;20543;-87
2023/05/14 06:18:06;;;;;;;5.97;2.63;;;;;;;19.29;47.68;99688.38;5056571;28;20192;-87
2023/05/14 06:20:40;;;;;;;5.77;2.00;;;;;;;19.25;47.73;99694.94;5046688;28;20186;-87
2023/05/14 06:23:07;;;;;;;4.07;2.10;;;;;;;19.27;47.46;99692.97;5055663;28;20216;-87
2023/05/14 06:25:33;;;;;;;5.40;2.20;;;;;;;19.23;48.38;99688.88;5049678;28;20260;-87
2023/05/14 06:28:01;;;;;;;3.93;1.80;;;;;;;19.25;48.79;99687.81;5047966;28;20190;-89
2023/05/14 06:31:06;;;;;;;9.07;2.20;;;;;;;19.31;48.94;99686.47;5047885;28;20634;-88
2023/05/14 06:34:19;;;;;;;4.97;1.93;;;;;;;19.36;49.55;99700.25;5047640;28;20284;-87
2023/05/14 06:36:47;;;;;;;4.33;1.87;;;;;;;19.43;48.59;99696.16;5053504;28;20632;-87
2023/05/14 06:39:17;;;;;;;8.43;2.03;;;;;;;19.42;47.42;99699.75;5053847;28;20545;-86
2023/05/14 06:41:47;;;;;;;6.10;2.73;;;;;;;19.51;48.62;99707.03;5053315;28;20630;-87
2023/05/14 06:44:13;;;;;;;3.53;1.83;;;;;;;19.63;47.92;99707.88;5053052;28;20189;-93
2023/05/14 06:46:39;;;;;;;6.07;2.33;;;;;;;19.76;48.28;99700.56;5053144;28;20216;-92
2023/05/14 06:49:04;;;;;;;5.13;2.00;;;;;;;19.84;47.55;99695.44;5054796;28;20272;-92
2023/05/14 06:51:32;;;;;;;5.40;2.00;;;;;;;19.91;47.67;99701.97;5049983;28;20182;-90
2023/05/14 06:54:00;;;;;;;5.17;2.00;;;;;;;19.95;47.10;99709.56;5053519;28;20201;-91
2023/05/14 06:56:26;;;;;;;4.90;1.80;;;;;;;20.02;46.55;99712.59;5039950;28;20182;-92
2023/05/14 06:58:53;;;;;;;8.93;3.60;;;;;;;19.91;46.17;99715.28;5054322;28;20565;-92
2023/05/14 07:01:18;;;;;;;5.43;2.77;;;;;;;19.92;46.44;99727.59;5054151;28;20197;-93
2023/05/14 07:03:44;;;;;;;5.10;2.70;;;;;;;19.92;46.65;99725.78;5050581;28;20221;-93
2023/05/14 07:06:10;;;;;;;9.17;3.10;;;;;;;19.91;46.04;99728.59;5053868;28;20205;-91
2023/05/14 07:08:37;;;;;;;9.60;3.57;;;;;;;19.89;46.10;99731.34;5054371;28;20189;-94
2023/05/14 07:11:04;;;;;;;7.60;3.33;;;;;;;19.85;47.04;99723.75;5069270;28;20272;-93
2023/05/14 07:13:32;;;;;;;6.63;2.97;;;;;;;19.92;46.60;99725.78;5054468;28;20190;-94
2023/05/14 07:15:59;;;;;;;5.13;2.03;;;;;;;19.95;46.65;99714.91;5044492;28;20205;-92
2023/05/14 07:18:24;;;;;;;4.67;2.33;;;;;;;20.08;46.92;99720.06;5050715;28;20189;-94
2023/05/14 07:20:58;;;;;;;21.63;6.37;;;;;;;20.04;45.66;99713.31;5052040;28;20182;-94
2023/05/14 07:23:38;;;;;;;57.13;12.57;;;;;;;19.73;46.32;99709.66;5045609;28;20173;-96
2023/05/14 07:26:10;;;;;;;24.03;6.03;;;;;;;19.48;47.37;99713.44;5052281;28;20677;-95
2023/05/14 07:28:37;;;;;;;12.00;5.00;;;;;;;19.61;48.20;99727.44;5032239;28;20194;-95
2023/05/14 07:31:07;;;;;;;6.17;2.80;;;;;;;19.75;47.88;99729.00;5065094;28;20190;-96
2023/05/14 07:33:35;;;;;;;18.10;4.37;;;;;;;19.71;47.28;99729.34;5044654;28;20213;-96
2023/05/14 07:36:05;;;;;;;6.23;2.87;;;;;;;19.87;47.48;99738.63;5049498;28;20537;-96
2023/05/14 07:38:32;;;;;;;9.77;3.27;;;;;;;20.01;47.95;99738.34;5050758;28;20173;-95
2023/05/14 07:40:59;;;;;;;9.90;2.80;;;;;;;20.08;47.49;99752.00;5049989;28;20249;-95
2023/05/14 07:43:26;;;;;;;6.87;3.07;;;;;;;20.13;46.58;99745.31;5039158;28;20189;-95
2023/05/14 07:45:55;;;;;;;6.97;2.67;;;;;;;20.25;46.04;99750.66;5053430;28;20212;-94
2023/05/14 07:48:21;;;;;;;5.77;3.13;;;;;;;20.24;46.40;99757.78;5043184;28;20174;-95
2023/05/14 07:50:51;;;;;;;6.37;2.50;;;;;;;20.33;46.46;99759.72;5050766;28;20228;-95
2023/05/14 07:53:20;;;;;;;5.37;2.33;;;;;;;20.34;46.02;99763.19;5050013;28;20190;-96
2023/05/14 07:55:48;;;;;;;4.57;2.00;;;;;;;20.38;46.19;99764.66;5046365;28;20189;-95
2023/05/14 07:58:16;;;;;;;6.47;2.30;;;;;;;20.48;46.17;99762.91;5046614;28;20666;-95
2023/05/14 08:00:43;;;;;;;5.43;1.97;;;;;;;20.56;46.11;99763.09;5047187;28;20189;-95
2023/05/14 08:03:10;;;;;;;6.33;2.40;;;;;;;20.61;46.26;99755.56;5047029;28;20190;-95
2023/05/14 08:05:35;;;;;;;4.20;1.97;;;;;;;20.63;46.59;99758.94;5054442;28;20296;-96
2023/05/14 08:08:03;;;;;;;6.23;2.70;;;;;;;20.69;47.06;99761.09;5053804;28;20272;-96
2023/05/14 08:10:33;;;;;;;7.70;2.33;;;;;;;20.76;46.56;99747.13;5050107;28;20627;-94
2023/05/14 08:13:01;;;;;;;8.33;2.23;;;;;;;20.80;46.34;99731.75;5045649;28;20190;-95
2023/05/14 08:15:28;;;;;;;4.77;2.60;;;;;;;20.97;46.42;99725.78;5053253;28;20188;-96
2023/05/14 08:17:55;;;;;;;8.30;2.70;;;;;;;20.94;46.64;99726.06;5046052;28;20182;-95
2023/05/14 08:20:22;;;;;;;5.33;2.50;;;;;;;20.91;47.11;99715.66;5053205;28;20247;-96
2023/05/14 08:22:48;;;;;;;5.40;2.20;;;;;;;20.91;47.85;99715.66;5053013;28;20181;-96
2023/05/14 08:25:13;;;;;;;5.47;1.97;;;;;;;21.04;47.90;99710.97;5053106;28;20189;-96
2023/05/14 08:27:40;;;;;;;5.43;2.33;;;;;;;21.04;48.60;99718.13;5053037;28;20181;-95
2023/05/14 08:30:06;;;;;;;8.03;2.30;;;;;;;20.99;47.18;99713.19;5049836;28;20192;-96
2023/05/14 08:32:31;;;;;;;4.63;2.17;;;;;;;21.13;47.27;99725.34;5042994;28;20181;-96
2023/05/14 08:34:57;;;;;;;5.20;2.27;;;;;;;21.24;47.45;99728.78;5052664;28;20242;-96
2023/05/14 08:37:22;;;;;;;4.50;2.17;;;;;;;21.28;46.54;99724.88;5052321;28;20185;-96
2023/05/14 08:39:48;;;;;;;8.67;3.13;;;;;;;21.31;47.11;99727.25;5052558;28;20189;-96
2023/05/14 08:42:17;;;;;;;4.43;2.60;;;;;;;21.19;46.75;99711.50;5046863;28;20196;-96
2023/05/14 08:44:53;;;;;;;6.87;2.90;;;;;;;21.01;48.71;99708.59;5057972;28;20199;-95
2023/05/14 08:47:21;;;;;;;5.77;3.07;;;;;;;21.06;47.88;99710.84;5069174;28;20198;-95
2023/05/14 08:49:57;;;;;;;7.07;2.83;;;;;;;21.01;47.67;99711.25;5052512;28;20212;-96
2023/05/14 08:52:24;;;;;;;10.77;3.00;;;;;;;20.99;48.10;99707.84;5053536;28;20196;-95
2023/05/14 08:54:52;;;;;;;6.07;2.37;;;;;;;21.07;49.17;99710.72;5051850;28;20652;-96
2023/05/14 08:57:19;;;;;;;4.13;1.77;;;;;;;21.05;47.20;99710.00;5052760;28;20265;-95
2023/05/14 08:59:47;;;;;;;4.93;2.00;;;;;;;21.13;48.07;99731.53;5052589;28;20271;-96
2023/05/14 09:02:16;;;;;;;9.33;2.30;;;;;;;21.25;48.94;99725.13;5054543;28;20197;-96
2023/05/14 09:04:43;;;;;;;3.80;1.70;;;;;;;21.23;48.28;99727.09;5054415;28;20182;-96
2023/05/14 09:07:10;;;;;;;3.83;2.00;;;;;;;21.12;48.82;99735.16;5047040;28;20201;-96
2023/05/14 09:09:38;;;;;;;11.83;2.10;;;;;;;21.16;48.70;99762.41;5071199;28;20243;-96
2023/05/14 09:12:05;;;;;;;5.03;1.87;;;;;;;21.21;49.99;99771.72;5055217;28;20186;-96
2023/05/14 09:14:34;;;;;;;5.27;2.03;;;;;;;21.08;48.78;99784.41;5063238;28;20249;-96
2023/05/14 09:17:03;;;;;;;7.40;2.20;;;;;;;20.97;50.14;99797.75;5061349;28;20177;-96
2023/05/14 09:19:36;;;;;;;3.40;1.60;;;;;;;20.90;50.37;99801.94;5053567;28;20274;-96
2023/05/14 09:22:08;;;;;;;3.97;1.87;;;;;;;20.84;51.82;99805.09;5053575;28;20177;-96
2023/05/14 09:24:33;;;;;;;4.77;2.20;;;;;;;20.86;52.60;99800.47;5052286;28;20197;-96
2023/05/14 09:26:59;;;;;;;9.63;1.90;;;;;;;20.80;54.13;99790.38;5054476;28;20266;-96
2023/05/14 09:29:28;;;;;;;4.10;2.13;;;;;;;20.72;56.65;99780.34;5072654;28;20177;-93
2023/05/14 09:31:56;;;;;;;4.63;2.17;;;;;;;20.75;56.56;99779.25;5056975;28;20178;-92
2023/05/14 09:34:29;;;;;;;8.93;1.97;;;;;;;20.78;56.56;99778.97;5055939;28;20181;-92
2023/05/14 09:37:06;;;;;;;4.33;2.10;;;;;;;20.79;56.75;99786.00;5073143;28;20593;-93
2023/05/14 09:39:34;;;;;;;7.50;2.33;;;;;;;20.80;57.27;99785.03;5057745;28;20184;-93
2023/05/14 09:42:02;;;;;;;6.03;2.23;;;;;;;20.73;57.35;99773.19;5055734;28;20278;-94
2023/05/14 09:44:29;;;;;;;4.00;2.33;;;;;;;20.73;58.13;99765.19;5073004;28;20671;-95
2023/05/14 09:46:55;;;;;;;9.40;2.00;;;;;;;20.64;58.07;99750.84;5057638;28;20248;-93
2023/05/14 09:49:22;;;;;;;4.17;2.07;;;;;;;20.57;58.80;99738.19;5056084;28;20264;-92
2023/05/14 09:51:50;;;;;;;4.27;2.50;;;;;;;20.41;61.51;99722.63;5055720;28;20696;-93
2023/05/14 09:54:17;;;;;;;4.87;2.40;;;;;;;20.32;62.13;99712.75;5073008;28;20185;-93
2023/05/14 09:56:44;;;;;;;7.67;2.97;;;;;;;20.32;62.62;99719.88;5055845;28;20575;-93
2023/05/14 09:59:10;;;;;;;7.10;3.27;;;;;;;20.35;62.36;99711.63;5072396;28;20233;-92
2023/05/14 10:01:39;;;;;;;5.20;2.93;;;;;;;20.28;62.13;99721.97;5072649;28;20178;-94
2023/05/14 10:04:07;;;;;;;7.57;2.73;;;;;;;20.16;62.46;99728.25;5072749;28;20193;-93
2023/05/14 10:06:37;;;;;;;4.80;2.73;;;;;;;20.15;62.43;99726.59;5055553;28;20574;-93
2023/05/14 10:09:10;;;;;;;5.77;3.10;;;;;;;20.25;63.05;99734.69;5056611;28;20276;-94
2023/05/14 10:11:37;;;;;;;5.83;3.23;;;;;;;20.33;62.67;99748.19;5055781;28;20178;-94
2023/05/14 10:14:37;;;;;;;4.00;2.87;;;;;;;20.46;62.68;99733.75;5060883;28;20196;-94
2023/05/14 10:17:05;;;;;;;10.53;3.47;;;;;;;20.33;63.94;99702.94;5048324;28;20552;-94
2023/05/14 10:19:34;;;;;;;4.97;2.90;;;;;;;20.20;64.42;99695.94;5055822;28;20243;-94
2023/05/14 10:22:07;;;;;;;8.20;3.17;;;;;;;20.19;63.54;99691.59;5054943;28;20201;-94
2023/05/14 10:24:37;;;;;;;7.77;3.23;;;;;;;20.22;63.02;99696.66;5056362;28;20255;-93
2023/05/14 10:27:04;;;;;;;9.73;3.70;;;;;;;20.05;63.60;99694.53;5055977;28;20244;-94
2023/05/14 10:29:36;;;;;;;5.77;3.03;;;;;;;19.98;64.26;99693.38;5071928;28;20193;-94
2023/05/14 10:32:07;;;;;;;8.40;3.77;;;;;;;19.93;64.80;99684.06;5047648;28;20185;-94
2023/05/14 10:34:43;;;;;;;8.57;3.50;;;;;;;20.01;64.75;99681.63;5071150;28;20197;-93
2023/05/14 10:37:26;;;;;;;8.80;3.40;;;;;;;19.82;64.54;99671.66;5055027;28;20173;-92
2023/05/14 10:40:01;;;;;;;7.73;3.20;;;;;;;19.68;65.04;99669.25;5054742;28;20276;-92
2023/05/14 10:42:39;;;;;;;8.00;3.43;;;;;;;19.67;65.66;99666.72;5048886;28;20192;-95
2023/05/14 10:45:07;;;;;;;6.57;3.90;;;;;;;19.81;65.90;99672.59;5071277;28;20186;-95
2023/05/14 10:47:38;;;;;;;8.80;3.80;;;;;;;19.95;65.42;99674.13;5071160;28;20637;-92
2023/05/14 10:50:09;;;;;;;7.07;3.40;;;;;;;19.94;66.10;99675.94;5053382;28;20192;-93
2023/05/14 10:52:42;;;;;;;5.07;3.23;;;;;;;20.02;66.69;99675.34;5054680;28;20550;-94
2023/05/14 10:55:13;;;;;;;11.67;3.87;;;;;;;20.13;66.67;99675.28;5054056;28;20197;-93
2023/05/14 10:57:40;;;;;;;8.77;4.10;;;;;;;20.30;66.14;99672.09;5054026;28;20323;-93
2023/05/14 11:00:07;;;;;;;6.07;3.73;;;;;;;20.32;65.43;99663.97;5054364;28;20190;-93
2023/05/14 11:02:36;;;;;;;7.93;3.23;;;;;;;20.39;64.77;99665.16;5053834;28;20182;-92
2023/05/14 11:05:18;;;;;;;9.27;3.80;;;;;;;20.36;65.70;99670.75;5053855;28;20193;-90
2023/05/14 11:07:48;;;;;;;5.97;3.57;;;;;;;20.41;66.07;99677.38;5051539;28;20213;-93
2023/05/14 11:10:19;;;;;;;8.23;4.10;;;;;;;20.30;65.22;99684.56;5055030;28;20185;-94
2023/05/14 11:12:47;;;;;;;7.80;3.67;;;;;;;20.25;65.33;99689.41;5053966;28;20196;-94
2023/05/14 11:15:17;;;;;;;5.47;3.20;;;;;;;20.04;63.99;99684.88;5070731;28;20193;-93
2023/05/14 11:17:45;;;;;;;6.50;3.30;;;;;;;19.98;63.76;99677.41;5048930;28;20658;-94
2023/05/14 11:20:13;;;;;;;5.17;3.30;;;;;;;19.96;64.03;99674.03;5054086;28;20641;-93
2023/05/14 11:22:41;;;;;;;12.20;4.50;;;;;;;19.93;65.02;99668.94;5054217;28;20207;-93
2023/05/14 11:25:10;;;;;;;9.40;3.67;;;;;;;19.82;64.69;99666.31;5070299;28;20185;-94
2023/05/14 11:27:38;;;;;;;8.07;3.80;;;;;;;19.72;65.90;99643.25;5065042;28;20657;-94
2023/05/14 11:30:05;;;;;;;11.07;4.63;;;;;;;19.78;67.07;99632.97;5069458;28;20657;-93
2023/05/14 11:32:31;;;;;;;9.20;4.47;;;;;;;19.69;67.33;99632.88;5070412;28;20189;-93
2023/05/14 11:34:58;;;;;;;8.07;4.10;;;;;;;19.55;66.17;99641.97;5064776;28;20532;-94
2023/05/14 11:37:25;;;;;;;6.90;3.93;;;;;;;19.53;66.67;99638.59;5049301;28;20607;-94